createdAt,value
2019-05-17T00:02:11.065Z,47.27
2019-05-17T00:04:38.374Z,48.42
2019-05-17T00:07:06.572Z,49.93
2019-05-17T00:09:34.164Z,46.53
2019-05-17T00:12:01.488Z,48.80
2019-05-17T00:14:28.502Z,47.40
2019-05-17T00:16:57.347Z,45.15
2019-05-17T00:19:26.298Z,46.30
2019-05-17T00:21:53.543Z,47.38
2019-05-17T00:24:20.781Z,47.58
2019-05-17T00:26:48.189Z,49.85
2019-05-17T00:29:17.274Z,50.48
2019-05-17T00:31:46.167Z,49.03
2019-05-17T00:34:13.458Z,49.33
2019-05-17T00:36:40.907Z,48.65
2019-05-17T00:39:08.030Z,46.40
2019-05-17T00:41:37.494Z,46.28
2019-05-17T00:44:06.280Z,46.95
2019-05-17T00:46:34.170Z,45.67
2019-05-17T00:49:01.391Z,47.85
2019-05-17T00:51:29.175Z,47.53
2019-05-17T00:53:56.487Z,48.13
2019-05-17T00:56:23.835Z,48.98
2019-05-17T00:58:50.927Z,47.08
2019-05-17T01:01:18.213Z,45.65
2019-05-17T01:03:47.643Z,45.55
2019-05-17T01:06:16.947Z,46.05
2019-05-17T01:08:47.468Z,46.80
2019-05-17T01:11:16.388Z,48.38
2019-05-17T01:13:44.034Z,48.83
2019-05-17T01:16:11.176Z,49.00
2019-05-17T01:18:38.707Z,45.88
2019-05-17T01:21:07.101Z,46.77
2019-05-17T01:23:36.242Z,47.25
2019-05-17T01:26:03.965Z,44.77
2019-05-17T01:28:31.112Z,46.00
2019-05-17T01:30:58.587Z,47.83
2019-05-17T01:33:26.461Z,47.38
2019-05-17T01:35:53.922Z,48.00
2019-05-17T01:38:21.333Z,46.85
2019-05-17T01:40:48.457Z,46.70
2019-05-17T01:43:16.637Z,45.08
2019-05-17T01:45:48.026Z,44.53
2019-05-17T01:48:16.379Z,42.40
2019-05-17T01:50:43.708Z,42.65
2019-05-17T01:53:10.707Z,44.73
2019-05-17T01:55:37.948Z,47.10
2019-05-17T01:58:07.380Z,44.75
2019-05-17T02:00:37.675Z,47.33
2019-05-17T02:03:06.784Z,45.00
2019-05-17T02:05:33.629Z,43.68
2019-05-17T02:08:00.768Z,43.85
2019-05-17T02:10:27.671Z,44.35
2019-05-17T02:12:56.897Z,44.25
2019-05-17T02:15:26.647Z,44.85
2019-05-17T02:17:53.634Z,46.68
2019-05-17T02:20:21.384Z,46.53
2019-05-17T02:22:48.548Z,44.35
2019-05-17T02:25:17.647Z,44.42
2019-05-17T02:27:44.991Z,46.02
2019-05-17T02:30:14.464Z,44.53
2019-05-17T02:32:43.403Z,46.68
2019-05-17T02:35:14.407Z,48.20
2019-05-17T02:37:43.324Z,49.80
2019-05-17T02:40:14.419Z,49.85
2019-05-17T02:42:42.969Z,51.00
2019-05-17T02:45:13.504Z,50.73
2019-05-17T02:47:43.720Z,50.48
2019-05-17T02:50:12.937Z,48.87
2019-05-17T02:52:43.549Z,50.17
2019-05-17T02:55:12.788Z,47.40
2019-05-17T02:57:43.316Z,47.83
2019-05-17T03:00:13.497Z,50.35
2019-05-17T03:02:43.384Z,50.73
2019-05-17T03:05:12.815Z,50.03
2019-05-17T03:07:43.667Z,49.48
2019-05-17T03:10:18.124Z,48.98
2019-05-17T03:12:39.190Z,46.10
2019-05-17T03:15:07.308Z,47.03
2019-05-17T03:17:34.555Z,47.88
2019-05-17T03:20:04.412Z,48.15
2019-05-17T03:22:33.124Z,48.60
2019-05-17T03:25:03.190Z,47.43
2019-05-17T03:27:29.917Z,47.17
2019-05-17T03:29:57.207Z,46.08
2019-05-17T03:32:26.524Z,45.60
2019-05-17T03:34:56.395Z,45.08
2019-05-17T03:37:30.127Z,45.92
2019-05-17T03:39:53.680Z,48.80
2019-05-17T03:42:22.647Z,48.38
2019-05-17T03:44:52.913Z,48.87
2019-05-17T03:47:22.466Z,47.53
2019-05-17T03:49:47.846Z,48.58
2019-05-17T03:52:14.778Z,46.73
2019-05-17T03:54:42.993Z,45.90
2019-05-17T03:57:13.410Z,46.53
2019-05-17T03:59:42.910Z,47.80
2019-05-17T04:02:08.411Z,46.80
2019-05-17T04:04:35.733Z,47.48
2019-05-17T04:07:03.555Z,45.75
2019-05-17T04:09:32.882Z,46.25
2019-05-17T04:12:02.808Z,43.58
2019-05-17T04:14:29.304Z,40.98
2019-05-17T04:16:56.386Z,41.48
2019-05-17T04:19:23.392Z,39.80
2019-05-17T04:21:53.568Z,38.08
2019-05-17T04:24:22.911Z,38.50
2019-05-17T04:26:52.009Z,41.53
2019-05-17T04:29:22.409Z,40.80
2019-05-17T04:31:48.560Z,40.55
2019-05-17T04:34:15.592Z,39.15
2019-05-17T04:36:43.372Z,38.53
2019-05-17T04:39:13.420Z,37.53
2019-05-17T04:41:46.931Z,37.73
2019-05-17T04:44:08.953Z,36.48
2019-05-17T04:46:35.920Z,38.50
2019-05-17T04:49:03.249Z,36.90
2019-05-17T04:51:32.229Z,37.93
2019-05-17T04:54:02.957Z,37.25
2019-05-17T04:56:28.475Z,34.18
2019-05-17T04:58:55.631Z,29.72
2019-05-17T05:01:23.595Z,18.60
2019-05-17T05:03:52.498Z,18.00
2019-05-17T05:06:23.305Z,16.85
2019-05-17T05:08:52.871Z,17.05
2019-05-17T05:11:23.324Z,15.28
2019-05-17T05:13:53.094Z,16.80
2019-05-17T05:16:22.631Z,16.40
2019-05-17T05:18:52.121Z,15.85
2019-05-17T05:21:22.847Z,16.75
2019-05-17T05:23:54.420Z,15.68
2019-05-17T05:26:22.259Z,13.62
2019-05-17T05:28:49.804Z,14.80
2019-05-17T05:31:16.963Z,15.78
2019-05-17T05:33:44.414Z,14.80
2019-05-17T05:36:11.499Z,13.58
2019-05-17T05:38:38.685Z,13.43
2019-05-17T05:41:05.718Z,13.85
2019-05-17T05:43:32.978Z,12.35
2019-05-17T05:46:02.336Z,12.25
2019-05-17T05:48:29.069Z,12.10
2019-05-17T05:50:56.270Z,12.50
2019-05-17T05:53:23.279Z,13.22
2019-05-17T05:55:51.790Z,13.58
2019-05-17T05:58:24.052Z,13.60
2019-05-17T06:00:52.917Z,14.07
2019-05-17T06:03:22.366Z,13.60
2019-05-17T06:05:48.952Z,11.22
2019-05-17T06:08:16.053Z,11.88
2019-05-17T06:10:43.078Z,11.60
2019-05-17T06:13:12.731Z,11.60
2019-05-17T06:15:39.436Z,12.40
2019-05-17T06:18:08.090Z,12.13
2019-05-17T06:20:35.480Z,11.55
2019-05-17T06:23:02.900Z,11.00
2019-05-17T06:25:33.781Z,9.85
2019-05-17T06:28:01.409Z,8.70
2019-05-17T06:30:28.513Z,9.10
2019-05-17T06:32:55.619Z,9.30
2019-05-17T06:35:22.763Z,9.70
2019-05-17T06:37:49.651Z,9.85
2019-05-17T06:40:16.979Z,10.43
2019-05-17T06:42:45.564Z,9.75
2019-05-17T06:45:13.690Z,9.03
2019-05-17T06:47:42.608Z,8.50
2019-05-17T06:50:10.699Z,8.63
2019-05-17T06:52:37.494Z,8.83
2019-05-17T06:55:06.030Z,9.53
2019-05-17T06:57:33.472Z,9.85
2019-05-17T07:00:03.255Z,9.73
2019-05-17T07:02:30.835Z,10.00
2019-05-17T07:05:01.533Z,10.05
2019-05-17T07:07:30.478Z,9.28
2019-05-17T07:10:00.504Z,9.00
2019-05-17T07:12:30.464Z,9.40
2019-05-17T07:14:58.433Z,9.40
2019-05-17T07:17:25.929Z,10.08
2019-05-17T07:19:52.727Z,9.55
2019-05-17T07:22:21.254Z,9.25
2019-05-17T07:24:50.265Z,8.33
2019-05-17T07:27:19.374Z,8.73
2019-05-17T07:30:06.651Z,7.53
2019-05-17T07:32:33.601Z,7.15
2019-05-17T07:35:00.828Z,7.30
2019-05-17T07:37:30.118Z,7.08
2019-05-17T07:40:01.092Z,7.15
2019-05-17T07:42:25.615Z,6.08
2019-05-17T07:44:52.929Z,6.72
2019-05-17T07:47:20.386Z,6.35
2019-05-17T07:49:49.447Z,6.45
2019-05-17T07:52:16.752Z,7.05
2019-05-17T07:54:44.266Z,6.25
2019-05-17T07:57:11.219Z,6.30
2019-05-17T07:59:39.757Z,6.20
2019-05-17T08:02:07.182Z,6.25
2019-05-17T08:04:34.339Z,6.40
2019-05-17T08:07:02.220Z,5.78
2019-05-17T08:09:30.092Z,6.12
2019-05-17T08:11:59.586Z,5.70
2019-05-17T08:14:30.221Z,6.55
2019-05-17T08:16:55.207Z,6.85
2019-05-17T08:19:22.270Z,8.90
2019-05-17T08:21:50.230Z,8.03
2019-05-17T08:24:19.586Z,8.05
2019-05-17T08:26:46.587Z,7.70
2019-05-17T08:29:13.641Z,8.53
2019-05-17T08:31:40.682Z,7.53
2019-05-17T08:34:10.234Z,7.72
2019-05-17T08:36:37.083Z,7.30
2019-05-17T08:39:05.684Z,7.78
2019-05-17T08:41:33.054Z,7.17
2019-05-17T08:44:00.654Z,7.00
2019-05-17T08:46:30.466Z,7.50
2019-05-17T08:49:00.101Z,7.80
2019-05-17T08:51:26.528Z,7.10
2019-05-17T08:53:53.531Z,6.78
2019-05-17T08:56:20.670Z,6.75
2019-05-17T08:58:49.701Z,7.50
2019-05-17T09:01:19.401Z,7.08
2019-05-17T09:03:45.809Z,7.12
2019-05-17T09:06:13.056Z,6.55
2019-05-17T09:08:40.621Z,6.83
2019-05-17T09:11:09.902Z,7.22
2019-05-17T09:13:37.031Z,6.50
2019-05-17T09:16:04.134Z,6.30
2019-05-17T09:18:31.558Z,6.15
2019-05-17T09:21:02.219Z,6.08
2019-05-17T09:23:30.463Z,6.03
2019-05-17T09:25:59.496Z,5.87
2019-05-17T09:28:26.925Z,5.53
2019-05-17T09:30:54.038Z,6.15
2019-05-17T09:33:21.170Z,6.30
2019-05-17T09:35:49.953Z,6.10
2019-05-17T09:38:17.232Z,6.12
2019-05-17T09:40:44.124Z,5.90
2019-05-17T09:43:11.255Z,5.72
2019-05-17T09:45:40.320Z,6.08
2019-05-17T09:48:10.262Z,5.33
2019-05-17T09:50:39.875Z,6.12
2019-05-17T09:53:06.737Z,5.78
2019-05-17T09:55:34.025Z,6.17
2019-05-17T09:58:01.303Z,6.20
2019-05-17T10:00:29.666Z,12.07
2019-05-17T10:02:57.003Z,11.05
2019-05-17T10:05:24.210Z,6.72
2019-05-17T10:07:51.488Z,6.40
2019-05-17T10:10:20.274Z,9.33
2019-05-17T10:12:49.685Z,9.08
2019-05-17T10:15:20.501Z,9.20
2019-05-17T10:17:46.987Z,13.08
2019-05-17T10:20:14.193Z,15.88
2019-05-17T10:22:41.216Z,15.83
2019-05-17T10:25:09.618Z,16.10
2019-05-17T10:27:37.672Z,17.15
2019-05-17T10:30:05.989Z,13.53
2019-05-17T10:32:33.498Z,19.10
2019-05-17T10:35:00.630Z,18.02
2019-05-17T10:37:30.145Z,20.68
2019-05-17T10:39:57.103Z,22.52
2019-05-17T10:42:24.098Z,22.32
2019-05-17T10:44:54.518Z,22.15
2019-05-17T10:47:20.546Z,22.37
2019-05-17T10:49:49.631Z,22.65
2019-05-17T10:52:16.675Z,23.27
2019-05-17T10:54:43.881Z,22.70
2019-05-17T10:57:11.075Z,22.48
2019-05-17T10:59:38.284Z,23.15
2019-05-17T11:02:05.530Z,22.22
2019-05-17T11:04:32.585Z,22.30
2019-05-17T11:06:59.705Z,20.92
2019-05-17T11:09:27.228Z,21.70
2019-05-17T11:11:54.551Z,20.12
2019-05-17T11:14:21.884Z,18.25
2019-05-17T11:16:49.120Z,17.57
2019-05-17T11:19:17.703Z,17.55
2019-05-17T11:21:44.729Z,19.85
2019-05-17T11:24:11.646Z,19.85
2019-05-17T11:26:38.710Z,20.72
2019-05-17T11:29:07.063Z,20.50
2019-05-17T11:31:34.314Z,21.60
2019-05-17T11:34:02.082Z,21.45
2019-05-17T11:36:29.387Z,19.67
2019-05-17T11:38:56.354Z,18.73
2019-05-17T11:41:23.463Z,18.10
2019-05-17T11:43:50.626Z,18.82
2019-05-17T11:46:17.679Z,19.65
2019-05-17T11:48:44.810Z,19.32
2019-05-17T11:51:12.011Z,18.82
2019-05-17T11:53:39.006Z,18.20
2019-05-17T11:56:06.399Z,19.55
2019-05-17T11:58:33.303Z,18.40
2019-05-17T12:01:00.419Z,17.75
2019-05-17T12:03:27.424Z,17.00
2019-05-17T12:05:54.745Z,16.50
2019-05-17T12:08:22.062Z,17.95
2019-05-17T12:10:49.281Z,19.70
2019-05-17T12:13:16.544Z,18.57
2019-05-17T12:15:45.436Z,19.73
2019-05-17T12:18:12.704Z,17.65
2019-05-17T12:20:39.895Z,17.00
2019-05-17T12:23:07.254Z,17.17
2019-05-17T12:25:34.569Z,15.43
2019-05-17T12:28:02.220Z,15.68
2019-05-17T12:30:29.380Z,18.48
2019-05-17T12:32:56.401Z,18.77
2019-05-17T12:35:23.716Z,17.55
2019-05-17T12:37:50.717Z,16.90
2019-05-17T12:40:18.371Z,16.95
2019-05-17T12:42:45.628Z,17.30
2019-05-17T12:45:13.713Z,16.25
2019-05-17T12:47:40.866Z,17.35
2019-05-17T12:50:10.491Z,18.77
2019-05-17T12:52:37.743Z,20.32
2019-05-17T12:55:05.771Z,15.58
2019-05-17T12:57:32.701Z,17.25
2019-05-17T12:59:59.858Z,16.27
2019-05-17T13:02:27.242Z,16.05
2019-05-17T13:04:54.938Z,19.75
2019-05-17T13:07:21.989Z,15.78
2019-05-17T13:09:48.921Z,15.63
2019-05-17T13:12:15.942Z,16.57
2019-05-17T13:14:42.935Z,15.45
2019-05-17T13:17:10.006Z,17.20
2019-05-17T13:19:37.184Z,14.30
2019-05-17T13:22:04.380Z,16.48
2019-05-17T13:24:31.439Z,13.40
2019-05-17T13:26:58.847Z,12.50
2019-05-17T13:29:25.826Z,13.20
2019-05-17T13:31:52.767Z,14.47
2019-05-17T13:34:19.763Z,14.75
2019-05-17T13:36:47.559Z,13.98
2019-05-17T13:39:14.643Z,12.55
2019-05-17T13:41:41.692Z,14.98
2019-05-17T13:44:08.823Z,14.30
2019-05-17T13:46:35.865Z,14.78
2019-05-17T13:49:03.205Z,12.95
2019-05-17T13:51:30.407Z,15.10
2019-05-17T13:53:57.675Z,12.98
2019-05-17T13:56:25.192Z,12.78
2019-05-17T13:58:52.163Z,14.87
2019-05-17T14:01:19.440Z,15.58
2019-05-17T14:03:46.465Z,9.70
2019-05-17T14:06:13.735Z,17.62
2019-05-17T14:08:41.309Z,20.02
2019-05-17T14:11:08.562Z,17.00
2019-05-17T14:13:35.660Z,14.78
2019-05-17T14:16:02.940Z,20.62
2019-05-17T14:18:30.021Z,19.25
2019-05-17T14:20:57.592Z,18.98
2019-05-17T14:23:24.664Z,18.15
2019-05-17T14:25:51.718Z,17.75
2019-05-17T14:28:18.602Z,12.40
2019-05-17T14:30:46.065Z,14.33
2019-05-17T14:33:13.305Z,11.97
2019-05-17T14:35:40.469Z,20.50
2019-05-17T14:38:07.492Z,31.05
2019-05-17T14:41:03.945Z,29.98
2019-05-17T14:43:03.672Z,25.00
2019-05-17T14:45:31.231Z,29.50
2019-05-17T14:47:58.376Z,20.37
2019-05-17T14:50:25.845Z,18.55
2019-05-17T14:52:52.855Z,20.62
2019-05-17T14:55:19.930Z,22.82
2019-05-17T14:57:47.063Z,12.50
2019-05-17T15:00:15.146Z,12.05
2019-05-17T15:02:42.513Z,15.20
2019-05-17T15:05:10.233Z,11.15
2019-05-17T15:07:37.413Z,9.58
2019-05-17T15:10:06.250Z,9.88
2019-05-17T15:12:33.268Z,7.58
2019-05-17T15:15:00.483Z,5.10
2019-05-17T15:17:27.625Z,15.05
2019-05-17T15:19:54.574Z,9.43
2019-05-17T15:22:21.529Z,6.45
2019-05-17T15:24:48.904Z,6.45
2019-05-17T15:27:15.917Z,4.75
2019-05-17T15:29:43.373Z,5.58
2019-05-17T15:32:10.427Z,5.00
2019-05-17T15:34:37.345Z,5.83
2019-05-17T15:37:04.399Z,4.95
2019-05-17T15:39:31.870Z,4.67
2019-05-17T15:41:59.191Z,5.33
2019-05-17T15:44:27.036Z,5.10
2019-05-17T15:46:54.431Z,5.92
2019-05-17T15:49:21.493Z,5.85
2019-05-17T15:51:48.642Z,8.25
2019-05-17T15:54:15.557Z,5.50
2019-05-17T15:56:42.984Z,4.92
2019-05-17T15:59:10.002Z,4.10
2019-05-17T16:01:37.469Z,4.50
2019-05-17T16:04:04.622Z,4.90
2019-05-17T16:06:31.968Z,4.67
2019-05-17T16:08:59.065Z,5.78
2019-05-17T16:11:26.178Z,7.60
2019-05-17T16:13:53.188Z,4.92
2019-05-17T16:16:20.222Z,4.45
2019-05-17T16:18:47.615Z,5.05
2019-05-17T16:21:14.517Z,5.45
2019-05-17T16:23:41.555Z,7.70
2019-05-17T16:26:08.472Z,7.60
2019-05-17T16:28:35.540Z,8.05
2019-05-17T16:31:03.124Z,7.90
2019-05-17T16:33:30.365Z,8.93
2019-05-17T16:35:57.371Z,9.30
2019-05-17T16:38:24.481Z,10.05
2019-05-17T16:40:51.760Z,9.88
2019-05-17T16:43:18.880Z,12.03
2019-05-17T16:45:45.791Z,13.60
2019-05-17T16:48:12.991Z,13.58
2019-05-17T16:50:40.141Z,13.65
2019-05-17T16:53:07.443Z,16.02
2019-05-17T16:55:34.517Z,16.45
2019-05-17T16:58:01.448Z,13.58
2019-05-17T17:00:42.591Z,17.73
2019-05-17T17:03:09.829Z,20.68
2019-05-17T17:05:37.103Z,33.28
2019-05-17T17:08:05.470Z,41.45
2019-05-17T17:10:32.707Z,35.63
2019-05-17T17:13:00.228Z,18.05
2019-05-17T17:15:27.527Z,17.12
2019-05-17T17:17:54.780Z,32.23
2019-05-17T17:20:22.146Z,29.77
2019-05-17T17:22:49.394Z,29.72
2019-05-17T17:25:16.626Z,29.65
2019-05-17T17:27:43.755Z,28.65
2019-05-17T17:30:12.573Z,54.90
2019-05-17T17:32:39.716Z,24.57
2019-05-17T17:35:07.704Z,24.98
2019-05-17T17:37:34.797Z,23.25
2019-05-17T17:40:04.691Z,15.38
2019-05-17T17:42:31.724Z,13.22
2019-05-17T17:44:58.660Z,12.10
2019-05-17T17:47:26.436Z,12.88
2019-05-17T17:49:53.658Z,12.25
2019-05-17T17:52:20.668Z,16.10
2019-05-17T17:54:48.072Z,17.35
2019-05-17T17:57:15.218Z,16.75
2019-05-17T17:59:42.269Z,23.00
2019-05-17T18:02:09.462Z,21.85
2019-05-17T18:04:36.419Z,18.27
2019-05-17T18:07:04.357Z,14.38
2019-05-17T18:09:31.387Z,12.55
2019-05-17T18:11:58.782Z,19.12
2019-05-17T18:14:27.963Z,20.50
2019-05-17T18:16:54.950Z,18.02
2019-05-17T18:19:21.944Z,37.25
2019-05-17T18:21:50.332Z,42.23
2019-05-17T18:24:17.533Z,35.60
2019-05-17T18:26:44.586Z,33.50
2019-05-17T18:29:11.759Z,31.95
2019-05-17T18:31:38.729Z,27.95
2019-05-17T18:34:05.778Z,26.70
2019-05-17T18:36:32.820Z,28.10
2019-05-17T18:39:01.722Z,29.85
2019-05-17T18:41:28.765Z,35.58
2019-05-17T18:43:55.902Z,40.40
2019-05-17T18:46:23.150Z,52.62
2019-05-17T18:48:50.345Z,59.23
2019-05-17T18:51:17.713Z,66.20
2019-05-17T18:53:45.245Z,54.85
2019-05-17T18:56:12.296Z,43.48
2019-05-17T18:58:39.499Z,64.07
2019-05-17T19:01:06.913Z,61.53
2019-05-17T19:03:34.063Z,59.70
2019-05-17T19:06:01.769Z,62.67
2019-05-17T19:08:28.943Z,58.75
2019-05-17T19:10:56.077Z,53.05
2019-05-17T19:13:22.916Z,46.80
2019-05-17T19:15:50.177Z,42.33
2019-05-17T19:18:17.164Z,38.65
2019-05-17T19:20:44.978Z,33.90
2019-05-17T19:23:11.986Z,30.57
2019-05-17T19:25:39.406Z,28.95
2019-05-17T19:28:06.552Z,31.87
2019-05-17T19:39:05.260Z,41.37
2019-05-17T19:41:33.034Z,38.50
2019-05-17T19:44:00.091Z,24.82
2019-05-17T19:46:27.147Z,16.50
2019-05-17T19:48:54.256Z,18.02
2019-05-17T19:51:21.389Z,17.77
2019-05-17T19:53:48.336Z,17.05
2019-05-17T19:56:15.364Z,18.98
2019-05-17T19:58:42.612Z,16.90
2019-05-17T20:01:09.717Z,23.35
2019-05-17T20:03:36.897Z,25.48
2019-05-17T20:06:04.214Z,26.57
2019-05-17T20:08:31.345Z,31.68
2019-05-17T20:10:58.908Z,27.58
2019-05-17T20:13:26.079Z,23.38
2019-05-17T20:15:53.238Z,23.50
2019-05-17T20:18:20.344Z,24.07
2019-05-17T20:20:47.444Z,20.80
2019-05-17T20:23:14.516Z,13.10
2019-05-17T20:25:41.497Z,11.90
2019-05-17T20:28:08.691Z,12.30
2019-05-17T20:30:35.707Z,16.97
2019-05-17T20:33:03.174Z,15.78
2019-05-17T20:35:30.267Z,16.20
2019-05-17T20:37:59.609Z,16.87
2019-05-17T20:40:26.625Z,22.52
2019-05-17T20:42:53.663Z,29.95
2019-05-17T20:45:32.712Z,28.10
2019-05-17T20:47:49.867Z,27.02
2019-05-17T20:50:18.345Z,35.65
2019-05-17T20:52:45.304Z,36.93
2019-05-17T20:55:14.915Z,41.28
2019-05-17T20:57:42.139Z,40.73
2019-05-17T21:00:10.762Z,41.92
2019-05-17T21:02:37.994Z,40.88
2019-05-17T21:05:06.742Z,45.03
2019-05-17T21:07:34.225Z,41.85
2019-05-17T21:10:03.080Z,40.60
2019-05-17T21:12:29.998Z,45.45
2019-05-17T21:14:58.140Z,47.50
2019-05-17T21:17:25.160Z,49.23
2019-05-17T21:19:52.089Z,52.45
2019-05-17T21:22:19.255Z,48.28
2019-05-17T21:24:46.606Z,48.48
2019-05-17T21:27:13.620Z,47.20
2019-05-17T21:29:41.023Z,45.50
2019-05-17T21:32:08.079Z,45.35
2019-05-17T21:34:35.655Z,44.77
2019-05-17T21:37:02.807Z,43.30
2019-05-17T21:39:29.727Z,45.38
2019-05-17T21:41:57.538Z,43.48
2019-05-17T21:44:24.734Z,44.53
2019-05-17T21:47:03.696Z,42.00
2019-05-17T21:49:20.752Z,39.75
2019-05-17T21:51:47.726Z,37.38
2019-05-17T21:54:14.994Z,37.48
2019-05-17T21:56:42.218Z,36.17
2019-05-17T21:59:12.492Z,37.95
2019-05-17T22:01:38.480Z,39.35
2019-05-17T22:04:06.109Z,45.05
2019-05-17T22:06:33.187Z,43.75
2019-05-17T22:09:00.692Z,40.52
2019-05-17T22:11:27.833Z,38.63
2019-05-17T22:13:54.960Z,34.98
2019-05-17T22:16:22.126Z,33.90
2019-05-17T22:18:49.276Z,34.38
2019-05-17T22:21:16.683Z,34.45
2019-05-17T22:23:44.183Z,36.93
2019-05-17T22:26:11.447Z,36.65
2019-05-17T22:28:38.481Z,33.95
2019-05-17T22:31:05.917Z,34.88
2019-05-17T22:33:32.975Z,31.90
2019-05-17T22:35:59.991Z,31.23
2019-05-17T22:38:27.027Z,30.77
2019-05-17T22:40:54.174Z,29.15
2019-05-17T22:43:21.363Z,29.80
2019-05-17T22:45:48.571Z,29.77
2019-05-17T22:48:15.715Z,29.85
2019-05-17T22:50:42.843Z,30.37
2019-05-17T22:53:10.352Z,31.27
2019-05-17T22:55:39.398Z,32.25
2019-05-17T22:58:06.588Z,30.60
2019-05-17T23:00:33.605Z,28.30
2019-05-17T23:03:00.921Z,25.68
2019-05-17T23:05:28.282Z,27.58
2019-05-17T23:07:55.567Z,25.72
2019-05-17T23:10:22.655Z,25.52
2019-05-17T23:12:49.776Z,25.20
2019-05-17T23:15:17.374Z,24.02
2019-05-17T23:17:44.530Z,25.90
2019-05-17T23:20:12.719Z,26.68
2019-05-17T23:22:39.802Z,27.02
2019-05-17T23:25:07.746Z,27.75
2019-05-17T23:27:34.844Z,28.17
2019-05-17T23:30:04.238Z,28.73
2019-05-17T23:32:31.148Z,30.90
2019-05-17T23:34:58.358Z,31.85
2019-05-17T23:37:25.378Z,33.75
2019-05-17T23:39:54.645Z,33.55
2019-05-17T23:42:22.065Z,32.50
2019-05-17T23:44:49.160Z,29.80
2019-05-17T23:47:16.436Z,29.63
2019-05-17T23:49:43.414Z,25.48
2019-05-17T23:52:10.651Z,26.97
2019-05-17T23:54:38.646Z,28.55
2019-05-17T23:57:05.999Z,28.00
2019-05-17T23:59:33.152Z,28.92
